BXS1010 LPPT-LEVX
Flight info
| Callsign | BXS1010 |
|---|---|
| Flight time | 0h 46m |
| Altitude | 32000 |
| Route | INBOM DCT MANIK/N0408F240 UP600 TURON |
| Aircraft | A319/M-SDE3FGHIRWY/LB1 |
Departure
| Time | 2026-04-29 15:59 |
|---|---|
| Airport | Lisbon Humberto Delgado Airport (LPPT) |
Arrival
| Time | 2026-04-29 16:46 |
|---|---|
| Airport | Vigo Airport (LEVX) |
| Time | Latitude | Longitude | Altitude | Speed | Heading |
|---|---|---|---|---|---|
| 2026-04-29 15:38 | 38.77430 | -9.13139 | 337 ft | 0 kts | 78° |
| 2026-04-29 15:51 | 38.77430 | -9.13140 | 337 ft | 0 kts | 78° |
| 2026-04-29 15:51 | 38.77430 | -9.13139 | 337 ft | 0 kts | 78° |
| 2026-04-29 15:51 | 38.77427 | -9.13154 | 332 ft | 2 kts | 78° |
| 2026-04-29 15:51 | 38.77424 | -9.13174 | 335 ft | 2 kts | 78° |
| 2026-04-29 15:52 | 38.77420 | -9.13195 | 332 ft | 2 kts | 77° |
| 2026-04-29 15:52 | 38.77417 | -9.13216 | 334 ft | 2 kts | 76° |
| 2026-04-29 15:52 | 38.77413 | -9.13236 | 333 ft | 2 kts | 74° |
| 2026-04-29 15:52 | 38.77408 | -9.13256 | 336 ft | 2 kts | 63° |
| 2026-04-29 15:53 | 38.77397 | -9.13272 | 333 ft | 2 kts | 350° |
| 2026-04-29 15:53 | 38.77392 | -9.13270 | 334 ft | 0 kts | 348° |
| 2026-04-29 15:54 | 38.77393 | -9.13271 | 333 ft | 1 kts | 348° |
| 2026-04-29 15:54 | 38.77426 | -9.13278 | 334 ft | 11 kts | 349° |
| 2026-04-29 15:54 | 38.77529 | -9.13305 | 335 ft | 17 kts | 348° |
| 2026-04-29 15:55 | 38.77649 | -9.13318 | 333 ft | 18 kts | 359° |
| 2026-04-29 15:55 | 38.77773 | -9.13352 | 345 ft | 20 kts | 343° |
| 2026-04-29 15:55 | 38.77932 | -9.13392 | 352 ft | 27 kts | 348° |
| 2026-04-29 15:55 | 38.78133 | -9.13446 | 362 ft | 31 kts | 348° |
| 2026-04-29 15:56 | 38.78356 | -9.13506 | 366 ft | 35 kts | 348° |
| 2026-04-29 15:56 | 38.78594 | -9.13570 | 372 ft | 30 kts | 351° |
| 2026-04-29 15:56 | 38.78802 | -9.13483 | 364 ft | 34 kts | 24° |
| 2026-04-29 15:56 | 38.79036 | -9.13357 | 350 ft | 38 kts | 22° |
| 2026-04-29 15:57 | 38.79278 | -9.13228 | 354 ft | 37 kts | 22° |
| 2026-04-29 15:57 | 38.79506 | -9.13107 | 359 ft | 34 kts | 22° |
| 2026-04-29 15:57 | 38.79704 | -9.13002 | 363 ft | 28 kts | 22° |
| 2026-04-29 15:57 | 38.79767 | -9.12886 | 359 ft | 20 kts | 111° |
| 2026-04-29 15:58 | 38.79677 | -9.12769 | 355 ft | 20 kts | 190° |
| 2026-04-29 15:58 | 38.79551 | -9.12836 | 359 ft | 19 kts | 204° |
| 2026-04-29 15:58 | 38.79429 | -9.12900 | 357 ft | 20 kts | 202° |
| 2026-04-29 15:58 | 38.79208 | -9.13021 | 360 ft | 66 kts | 202° |
| 2026-04-29 15:59 | 38.78559 | -9.13365 | 365 ft | 130 kts | 203° |
| 2026-04-29 15:59 | 38.77577 | -9.13881 | 527 ft | 165 kts | 205° |
| 2026-04-29 15:59 | 38.76486 | -9.14480 | 1087 ft | 173 kts | 205° |
| 2026-04-29 15:59 | 38.75387 | -9.15070 | 1914 ft | 170 kts | 206° |
| 2026-04-29 16:00 | 38.74259 | -9.15673 | 2468 ft | 186 kts | 206° |
| 2026-04-29 16:00 | 38.72985 | -9.16358 | 2914 ft | 211 kts | 206° |
| 2026-04-29 16:00 | 38.71557 | -9.17126 | 3464 ft | 235 kts | 205° |
| 2026-04-29 16:00 | 38.69994 | -9.17967 | 4275 ft | 249 kts | 206° |
| 2026-04-29 16:01 | 38.68370 | -9.18833 | 5227 ft | 256 kts | 205° |
| 2026-04-29 16:01 | 38.66697 | -9.19674 | 6174 ft | 263 kts | 199° |
| 2026-04-29 16:01 | 38.64847 | -9.19910 | 7038 ft | 275 kts | 178° |
| 2026-04-29 16:01 | 38.62984 | -9.19209 | 7898 ft | 287 kts | 155° |
| 2026-04-29 16:02 | 38.61406 | -9.17585 | 8782 ft | 297 kts | 135° |
| 2026-04-29 16:02 | 38.60005 | -9.15623 | 9692 ft | 301 kts | 134° |
| 2026-04-29 16:02 | 38.58565 | -9.13614 | 10278 ft | 316 kts | 135° |
| 2026-04-29 16:02 | 38.57015 | -9.11465 | 10571 ft | 340 kts | 135° |
| 2026-04-29 16:03 | 38.55361 | -9.09181 | 10994 ft | 356 kts | 135° |
| 2026-04-29 16:03 | 38.53670 | -9.06839 | 11704 ft | 363 kts | 134° |
| 2026-04-29 16:03 | 38.52199 | -9.04188 | 12421 ft | 371 kts | 118° |
| 2026-04-29 16:03 | 38.51311 | -9.01063 | 13162 ft | 378 kts | 102° |
| 2026-04-29 16:04 | 38.51110 | -8.97709 | 13871 ft | 382 kts | 85° |
| 2026-04-29 16:04 | 38.51626 | -8.94388 | 14507 ft | 384 kts | 68° |
| 2026-04-29 16:04 | 38.52725 | -8.91268 | 15173 ft | 386 kts | 61° |
| 2026-04-29 16:04 | 38.53902 | -8.88163 | 15844 ft | 390 kts | 62° |
| 2026-04-29 16:05 | 38.55091 | -8.85020 | 16494 ft | 394 kts | 62° |
| 2026-04-29 16:05 | 38.56274 | -8.81880 | 17152 ft | 398 kts | 62° |
| 2026-04-29 16:05 | 38.57466 | -8.78699 | 17789 ft | 402 kts | 62° |
| 2026-04-29 16:05 | 38.58679 | -8.75449 | 18394 ft | 407 kts | 62° |
| 2026-04-29 16:06 | 38.59903 | -8.72160 | 18930 ft | 412 kts | 62° |
| 2026-04-29 16:06 | 38.61139 | -8.68842 | 19464 ft | 416 kts | 62° |
| 2026-04-29 16:06 | 38.62520 | -8.65583 | 19984 ft | 418 kts | 53° |
| 2026-04-29 16:06 | 38.64382 | -8.62716 | 20507 ft | 418 kts | 40° |
| 2026-04-29 16:07 | 38.66651 | -8.60419 | 21025 ft | 416 kts | 27° |
| 2026-04-29 16:07 | 38.69222 | -8.58766 | 21552 ft | 413 kts | 15° |
| 2026-04-29 16:07 | 38.71981 | -8.57807 | 22090 ft | 410 kts | 4° |
| 2026-04-29 16:07 | 38.74812 | -8.57474 | 22606 ft | 410 kts | 358° |
| 2026-04-29 16:08 | 38.77668 | -8.57231 | 23116 ft | 413 kts | 358° |
| 2026-04-29 16:08 | 38.80551 | -8.56982 | 23582 ft | 417 kts | 358° |
| 2026-04-29 16:08 | 38.83461 | -8.56721 | 24004 ft | 420 kts | 359° |
| 2026-04-29 16:08 | 38.86387 | -8.56458 | 24416 ft | 423 kts | 358° |
| 2026-04-29 16:09 | 38.89333 | -8.56191 | 24832 ft | 426 kts | 359° |
| 2026-04-29 16:09 | 38.92297 | -8.55922 | 25233 ft | 429 kts | 359° |
| 2026-04-29 16:09 | 38.95284 | -8.55652 | 25638 ft | 431 kts | 359° |
| 2026-04-29 16:09 | 38.98282 | -8.55388 | 26041 ft | 434 kts | 358° |
| 2026-04-29 16:10 | 39.01302 | -8.55121 | 26440 ft | 436 kts | 359° |
| 2026-04-29 16:10 | 39.04344 | -8.54855 | 26836 ft | 439 kts | 359° |
| 2026-04-29 16:10 | 39.07441 | -8.54583 | 27235 ft | 442 kts | 359° |
| 2026-04-29 16:10 | 39.10516 | -8.54313 | 27622 ft | 444 kts | 359° |
| 2026-04-29 16:11 | 39.13571 | -8.54040 | 27972 ft | 447 kts | 359° |
| 2026-04-29 16:11 | 39.16686 | -8.53759 | 28339 ft | 450 kts | 359° |
| 2026-04-29 16:11 | 39.19855 | -8.53473 | 28719 ft | 452 kts | 359° |
| 2026-04-29 16:11 | 39.23003 | -8.53191 | 29072 ft | 454 kts | 359° |
| 2026-04-29 16:12 | 39.26169 | -8.52911 | 29421 ft | 457 kts | 359° |
| 2026-04-29 16:12 | 39.28268 | -8.52723 | 29655 ft | 458 kts | 359° |
| 2026-04-29 16:12 | 39.32492 | -8.52342 | 30071 ft | 461 kts | 360° |
| 2026-04-29 16:12 | 39.35717 | -8.52048 | 30371 ft | 463 kts | 360° |
| 2026-04-29 16:13 | 39.38983 | -8.51753 | 30636 ft | 466 kts | 0° |
| 2026-04-29 16:13 | 39.42223 | -8.51461 | 30924 ft | 467 kts | 0° |
| 2026-04-29 16:13 | 39.45456 | -8.51171 | 31306 ft | 466 kts | 0° |
| 2026-04-29 16:13 | 39.48697 | -8.50885 | 31674 ft | 466 kts | 0° |
| 2026-04-29 16:14 | 39.51935 | -8.50600 | 31827 ft | 466 kts | 0° |
| 2026-04-29 16:14 | 39.58308 | -8.50022 | 31859 ft | 455 kts | 0° |
| 2026-04-29 16:15 | 39.64611 | -8.49375 | 31852 ft | 455 kts | 5° |
| 2026-04-29 16:15 | 39.70693 | -8.46952 | 31865 ft | 462 kts | 21° |
| 2026-04-29 16:16 | 39.76563 | -8.43617 | 31865 ft | 462 kts | 21° |
| 2026-04-29 16:16 | 39.82496 | -8.40258 | 31863 ft | 462 kts | 21° |
| 2026-04-29 16:17 | 39.88392 | -8.36919 | 31861 ft | 462 kts | 21° |
| 2026-04-29 16:17 | 39.94299 | -8.33599 | 31865 ft | 461 kts | 18° |
| 2026-04-29 16:18 | 40.00527 | -8.32025 | 31860 ft | 455 kts | 359° |
| 2026-04-29 16:18 | 40.06713 | -8.33153 | 31865 ft | 448 kts | 340° |
| 2026-04-29 16:19 | 40.12600 | -8.35801 | 31845 ft | 448 kts | 339° |
| 2026-04-29 16:19 | 40.18490 | -8.38462 | 31857 ft | 448 kts | 339° |
| 2026-04-29 16:20 | 40.24380 | -8.41128 | 31850 ft | 448 kts | 339° |
| 2026-04-29 16:20 | 40.30278 | -8.43807 | 31841 ft | 448 kts | 339° |
| 2026-04-29 16:21 | 40.36177 | -8.46495 | 31835 ft | 449 kts | 339° |
| 2026-04-29 16:21 | 40.42082 | -8.49191 | 31848 ft | 449 kts | 339° |
| 2026-04-29 16:22 | 40.47996 | -8.51885 | 31840 ft | 450 kts | 339° |
| 2026-04-29 16:22 | 40.53911 | -8.54587 | 31833 ft | 451 kts | 339° |
| 2026-04-29 16:23 | 40.59836 | -8.57302 | 31837 ft | 451 kts | 339° |
| 2026-04-29 16:23 | 40.65762 | -8.60022 | 31848 ft | 451 kts | 340° |
| 2026-04-29 16:24 | 40.71865 | -8.61944 | 31844 ft | 453 kts | 354° |
| 2026-04-29 16:24 | 40.78216 | -8.62714 | 31532 ft | 462 kts | 354° |
| 2026-04-29 16:24 | 40.81444 | -8.63110 | 31060 ft | 468 kts | 354° |
| 2026-04-29 16:25 | 40.84674 | -8.63508 | 30496 ft | 464 kts | 355° |
| 2026-04-29 16:25 | 40.87898 | -8.63904 | 29416 ft | 467 kts | 355° |
| 2026-04-29 16:25 | 40.91135 | -8.64299 | 28427 ft | 467 kts | 355° |
| 2026-04-29 16:25 | 40.94362 | -8.64695 | 27621 ft | 462 kts | 355° |
| 2026-04-29 16:26 | 40.97533 | -8.65085 | 26668 ft | 454 kts | 355° |
| 2026-04-29 16:26 | 41.00650 | -8.65468 | 25743 ft | 447 kts | 354° |
| 2026-04-29 16:26 | 41.03722 | -8.65849 | 24749 ft | 439 kts | 354° |
| 2026-04-29 16:26 | 41.06712 | -8.66221 | 24200 ft | 422 kts | 354° |
| 2026-04-29 16:27 | 41.09594 | -8.66580 | 23990 ft | 414 kts | 354° |
| 2026-04-29 16:27 | 41.12467 | -8.66935 | 23841 ft | 411 kts | 354° |
| 2026-04-29 16:27 | 41.15308 | -8.67287 | 23861 ft | 410 kts | 354° |
| 2026-04-29 16:27 | 41.18150 | -8.67639 | 23865 ft | 410 kts | 354° |
| 2026-04-29 16:28 | 41.20033 | -8.67874 | 23860 ft | 410 kts | 354° |
| 2026-04-29 16:28 | 41.22870 | -8.68227 | 23862 ft | 411 kts | 354° |
| 2026-04-29 16:28 | 41.25716 | -8.68577 | 23863 ft | 411 kts | 355° |
| 2026-04-29 16:28 | 41.28573 | -8.68580 | 23865 ft | 412 kts | 4° |
| 2026-04-29 16:29 | 41.31427 | -8.68154 | 23861 ft | 413 kts | 6° |
| 2026-04-29 16:29 | 41.34294 | -8.67708 | 23864 ft | 413 kts | 6° |
| 2026-04-29 16:29 | 41.37150 | -8.67265 | 23863 ft | 414 kts | 6° |
| 2026-04-29 16:29 | 41.40005 | -8.66819 | 23860 ft | 414 kts | 6° |
| 2026-04-29 16:30 | 41.42873 | -8.66374 | 23796 ft | 415 kts | 6° |
| 2026-04-29 16:30 | 41.45733 | -8.65931 | 23563 ft | 413 kts | 6° |
| 2026-04-29 16:30 | 41.48577 | -8.65488 | 23318 ft | 412 kts | 6° |
| 2026-04-29 16:30 | 41.51425 | -8.65041 | 23041 ft | 410 kts | 6° |
| 2026-04-29 16:31 | 41.54251 | -8.64602 | 22750 ft | 408 kts | 6° |
| 2026-04-29 16:31 | 41.57069 | -8.64164 | 22481 ft | 407 kts | 6° |
| 2026-04-29 16:31 | 41.59881 | -8.63725 | 22209 ft | 404 kts | 5° |
| 2026-04-29 16:31 | 41.62650 | -8.63292 | 21771 ft | 399 kts | 6° |
| 2026-04-29 16:32 | 41.65393 | -8.62861 | 21282 ft | 395 kts | 6° |
| 2026-04-29 16:32 | 41.68143 | -8.62431 | 20829 ft | 391 kts | 5° |
| 2026-04-29 16:32 | 41.70843 | -8.62011 | 20366 ft | 388 kts | 5° |
| 2026-04-29 16:32 | 41.73517 | -8.61597 | 19884 ft | 385 kts | 6° |
| 2026-04-29 16:33 | 41.78817 | -8.60768 | 18928 ft | 383 kts | 6° |
| 2026-04-29 16:33 | 41.81429 | -8.60356 | 18451 ft | 383 kts | 6° |
| 2026-04-29 16:33 | 41.84117 | -8.59935 | 17897 ft | 385 kts | 6° |
| 2026-04-29 16:34 | 41.86773 | -8.59520 | 17366 ft | 382 kts | 5° |
| 2026-04-29 16:34 | 41.89376 | -8.59113 | 16859 ft | 379 kts | 5° |
| 2026-04-29 16:34 | 41.92014 | -8.58697 | 16341 ft | 376 kts | 6° |
| 2026-04-29 16:34 | 41.94605 | -8.58283 | 15833 ft | 373 kts | 6° |
| 2026-04-29 16:35 | 41.97170 | -8.57871 | 15318 ft | 371 kts | 5° |
| 2026-04-29 16:35 | 41.99726 | -8.57463 | 14818 ft | 369 kts | 5° |
| 2026-04-29 16:35 | 42.02266 | -8.57061 | 14317 ft | 366 kts | 5° |
| 2026-04-29 16:35 | 42.04794 | -8.57046 | 13817 ft | 363 kts | 352° |
| 2026-04-29 16:36 | 42.07242 | -8.57795 | 13273 ft | 359 kts | 339° |
| 2026-04-29 16:36 | 42.09464 | -8.59238 | 12770 ft | 353 kts | 326° |
| 2026-04-29 16:36 | 42.11423 | -8.61199 | 12262 ft | 349 kts | 320° |
| 2026-04-29 16:36 | 42.13325 | -8.63201 | 11764 ft | 346 kts | 320° |
| 2026-04-29 16:37 | 42.15216 | -8.65183 | 11250 ft | 342 kts | 320° |
| 2026-04-29 16:37 | 42.17089 | -8.67146 | 10746 ft | 340 kts | 321° |
| 2026-04-29 16:37 | 42.18941 | -8.69089 | 10353 ft | 333 kts | 320° |
| 2026-04-29 16:37 | 42.20125 | -8.70333 | 10266 ft | 318 kts | 320° |
| 2026-04-29 16:38 | 42.22358 | -8.72682 | 9963 ft | 296 kts | 320° |
| 2026-04-29 16:38 | 42.23973 | -8.74381 | 9745 ft | 290 kts | 322° |
| 2026-04-29 16:38 | 42.25748 | -8.75667 | 9613 ft | 291 kts | 339° |
| 2026-04-29 16:38 | 42.27733 | -8.76180 | 9477 ft | 293 kts | 356° |
| 2026-04-29 16:39 | 42.29774 | -8.75886 | 8964 ft | 299 kts | 14° |
| 2026-04-29 16:39 | 42.31761 | -8.75064 | 8492 ft | 300 kts | 16° |
| 2026-04-29 16:39 | 42.33741 | -8.74258 | 8010 ft | 294 kts | 15° |
| 2026-04-29 16:39 | 42.35689 | -8.73477 | 7418 ft | 291 kts | 15° |
| 2026-04-29 16:40 | 42.37627 | -8.72706 | 6819 ft | 288 kts | 15° |
| 2026-04-29 16:40 | 42.39527 | -8.71953 | 6352 ft | 282 kts | 15° |
| 2026-04-29 16:40 | 42.41331 | -8.70928 | 5879 ft | 284 kts | 34° |
| 2026-04-29 16:40 | 42.42681 | -8.69003 | 5407 ft | 283 kts | 59° |
| 2026-04-29 16:41 | 42.43300 | -8.66518 | 5016 ft | 277 kts | 85° |
| 2026-04-29 16:41 | 42.43135 | -8.63983 | 4570 ft | 266 kts | 109° |
| 2026-04-29 16:41 | 42.42333 | -8.61854 | 4382 ft | 245 kts | 123° |
| 2026-04-29 16:41 | 42.41406 | -8.60025 | 4230 ft | 225 kts | 135° |
| 2026-04-29 16:42 | 42.40157 | -8.58856 | 4117 ft | 217 kts | 159° |
| 2026-04-29 16:42 | 42.38691 | -8.58498 | 3819 ft | 216 kts | 184° |
| 2026-04-29 16:42 | 42.37224 | -8.58843 | 3500 ft | 211 kts | 192° |
| 2026-04-29 16:42 | 42.35806 | -8.59235 | 3220 ft | 201 kts | 192° |
| 2026-04-29 16:43 | 42.34461 | -8.59600 | 2915 ft | 193 kts | 191° |
| 2026-04-29 16:43 | 42.33177 | -8.59950 | 2649 ft | 181 kts | 191° |
| 2026-04-29 16:43 | 42.31987 | -8.60276 | 2418 ft | 169 kts | 191° |
| 2026-04-29 16:43 | 42.30865 | -8.60584 | 2195 ft | 160 kts | 191° |
| 2026-04-29 16:44 | 42.29814 | -8.60873 | 1986 ft | 151 kts | 191° |
| 2026-04-29 16:44 | 42.28811 | -8.61147 | 1791 ft | 141 kts | 191° |
| 2026-04-29 16:44 | 42.27871 | -8.61412 | 1632 ft | 135 kts | 192° |
| 2026-04-29 16:44 | 42.26970 | -8.61666 | 1438 ft | 128 kts | 193° |
| 2026-04-29 16:45 | 42.26086 | -8.61880 | 1194 ft | 128 kts | 193° |
| 2026-04-29 16:45 | 42.25223 | -8.62131 | 1003 ft | 127 kts | 195° |
| 2026-04-29 16:45 | 42.24356 | -8.62358 | 881 ft | 126 kts | 194° |
| 2026-04-29 16:45 | 42.23523 | -8.62604 | 848 ft | 114 kts | 191° |
| 2026-04-29 16:46 | 42.22928 | -8.62759 | 858 ft | 48 kts | 193° |
| 2026-04-29 16:46 | 42.22773 | -8.62895 | 856 ft | 16 kts | 222° |
| 2026-04-29 16:46 | 42.22689 | -8.62990 | 855 ft | 15 kts | 224° |
| 2026-04-29 16:46 | 42.22598 | -8.63052 | 859 ft | 15 kts | 191° |
| 2026-04-29 16:47 | 42.22506 | -8.63089 | 857 ft | 11 kts | 236° |
| 2026-04-29 16:47 | 42.22509 | -8.63177 | 864 ft | 8 kts | 285° |
| 2026-04-29 16:47 | 42.22513 | -8.63199 | 860 ft | 0 kts | 282° |